Time;durP1;ratioP1;P1;durP2;ratioP2;P2;SDS_P1;SDS_P2;PMS_P1;PMS_P2;Temp;Humidity;BMP_temperature;BMP_pressure;BME280_temperature;BME280_humidity;BME280_pressure;Samples;Min_cycle;Max_cycle;Signal;HPM_P1;HPM_P2
2022/11/01 00:01:31;;;;;;;5.97;2.90;;;;;;;23.34;37.75;97491.06;5155848;27;20026;-35
2022/11/01 00:03:57;;;;;;;4.68;2.90;;;;;;;23.34;37.98;97500.13;5155708;27;20489;-34
2022/11/01 00:06:23;;;;;;;4.32;2.60;;;;;;;23.35;37.81;97495.34;5155996;27;20019;-34
2022/11/01 00:08:49;;;;;;;6.45;2.97;;;;;;;23.33;37.94;97500.59;5155835;27;20023;-35
2022/11/01 00:11:16;;;;;;;3.10;2.65;;;;;;;23.31;38.16;97492.78;5155466;27;20025;-35
2022/11/01 00:13:45;;;;;;;5.07;2.88;;;;;;;23.29;37.81;97490.50;5155871;27;20026;-36
2022/11/01 00:16:11;;;;;;;5.93;3.22;;;;;;;23.33;38.16;97489.53;5155609;27;20019;-35
2022/11/01 00:18:36;;;;;;;4.63;3.00;;;;;;;23.32;37.99;97485.25;5155460;27;20023;-36
2022/11/01 00:21:02;;;;;;;5.07;2.95;;;;;;;23.31;38.21;97492.03;5155364;27;20370;-35
2022/11/01 00:23:27;;;;;;;4.05;2.83;;;;;;;23.30;38.09;97482.97;5155740;27;20122;-34
2022/11/01 00:25:53;;;;;;;3.75;2.67;;;;;;;23.35;38.27;97487.06;5155335;27;20486;-34
2022/11/01 00:28:19;;;;;;;6.47;3.10;;;;;;;23.28;38.33;97483.44;5155269;27;20025;-35
2022/11/01 00:30:45;;;;;;;5.90;2.83;;;;;;;23.36;38.36;97478.25;5155473;27;20095;-34
2022/11/01 00:33:10;;;;;;;5.45;2.95;;;;;;;23.30;38.65;97480.19;5155242;27;20463;-34
2022/11/01 00:35:36;;;;;;;4.72;2.50;;;;;;;23.25;38.72;97484.41;5155240;27;20023;-34
2022/11/01 00:38:02;;;;;;;3.53;2.30;;;;;;;23.22;38.71;97488.16;5155064;27;20034;-34
2022/11/01 00:40:27;;;;;;;5.60;2.58;;;;;;;23.25;38.96;97476.09;5155311;27;20022;-34
2022/11/01 00:42:53;;;;;;;3.15;2.42;;;;;;;23.27;38.83;97479.16;5155095;27;20382;-35
2022/11/01 00:45:19;;;;;;;4.47;2.47;;;;;;;23.24;39.22;97482.16;5155161;27;20027;-36
2022/11/01 00:47:48;;;;;;;7.70;2.72;;;;;;;23.22;38.88;97481.88;5155043;27;20022;-35
2022/11/01 00:50:14;;;;;;;5.30;2.45;;;;;;;23.21;39.14;97478.34;5155143;27;20027;-34
2022/11/01 00:52:39;;;;;;;5.03;2.40;;;;;;;23.21;39.12;97483.88;5155345;27;20435;-34
2022/11/01 00:55:05;;;;;;;4.50;2.35;;;;;;;23.20;39.21;97478.81;5155351;27;20071;-36
2022/11/01 00:57:31;;;;;;;5.40;2.40;;;;;;;23.25;39.21;97487.19;5155185;27;20487;-37
2022/11/01 00:59:56;;;;;;;5.80;2.50;;;;;;;23.23;39.68;97483.41;5155150;27;20583;-36
2022/11/01 01:02:22;;;;;;;2.70;2.15;;;;;;;23.18;39.54;97481.31;5155219;27;20026;-35
2022/11/01 01:04:49;;;;;;;5.40;2.50;;;;;;;23.16;39.78;97481.78;5154984;27;20018;-34
2022/11/01 01:07:15;;;;;;;5.30;2.30;;;;;;;23.18;39.79;97476.53;5159066;27;20024;-34
2022/11/01 01:09:41;;;;;;;3.63;2.30;;;;;;;23.22;39.69;97479.09;5159043;27;20018;-34
2022/11/01 01:12:08;;;;;;;3.45;2.25;;;;;;;23.18;39.97;97479.31;5158965;27;20098;-34
2022/11/01 01:14:34;;;;;;;5.32;2.20;;;;;;;23.18;40.05;97484.06;5159121;27;20426;-34
2022/11/01 01:17:00;;;;;;;4.40;1.85;;;;;;;23.18;39.74;97484.84;5159147;27;20027;-34
2022/11/01 01:19:26;;;;;;;5.25;2.03;;;;;;;23.16;40.07;97483.78;5158851;27;20023;-34
2022/11/01 01:21:52;;;;;;;3.17;2.15;;;;;;;23.21;39.70;97478.34;5158962;27;20059;-34
2022/11/01 01:24:17;;;;;;;4.75;2.65;;;;;;;23.18;39.89;97476.53;5158678;27;20501;-34
2022/11/01 01:26:43;;;;;;;4.07;2.10;;;;;;;23.17;40.15;97482.56;5158845;27;20030;-34
2022/11/01 01:29:08;;;;;;;4.55;2.72;;;;;;;23.14;40.04;97484.28;5159151;27;20035;-36
2022/11/01 01:31:34;;;;;;;5.95;2.20;;;;;;;23.11;40.09;97482.50;5158437;27;20015;-36
2022/11/01 01:34:00;;;;;;;3.78;2.35;;;;;;;23.12;40.14;97477.72;5158853;27;20574;-34
2022/11/01 01:36:25;;;;;;;3.95;2.40;;;;;;;23.15;40.32;97477.50;5158800;27;20034;-34
2022/11/01 01:38:52;;;;;;;3.90;2.42;;;;;;;23.19;40.29;97474.53;5158514;27;20099;-35
2022/11/01 01:44:22;;;;;;;4.38;2.30;;;;;;;23.11;40.54;97479.72;5159264;27;20025;-34
2022/11/01 01:46:47;;;;;;;3.97;2.00;;;;;;;23.08;40.58;97468.88;5158380;27;20088;-34
2022/11/01 01:49:13;;;;;;;4.82;2.38;;;;;;;23.13;40.24;97476.47;5158859;27;20416;-34
2022/11/01 01:51:38;;;;;;;4.28;1.90;;;;;;;23.12;40.38;97475.69;5158540;27;20481;-34
2022/11/01 01:54:04;;;;;;;4.63;2.42;;;;;;;23.08;40.67;97466.09;5156526;27;20023;-34
2022/11/01 01:56:34;;;;;;;4.50;2.38;;;;;;;23.12;40.56;97464.63;5156065;27;20466;-34
2022/11/01 01:59:08;;;;;;;3.72;1.95;;;;;;;23.10;40.56;97466.38;5158181;27;20026;-34
2022/11/01 02:01:37;;;;;;;3.47;2.17;;;;;;;23.07;40.60;97468.09;5158284;27;20075;-34
2022/11/01 02:04:05;;;;;;;2.60;1.95;;;;;;;23.08;40.33;97466.09;5158080;27;20023;-35
2022/11/01 02:06:32;;;;;;;4.70;1.90;;;;;;;23.11;40.56;97463.13;5158138;27;20046;-36
2022/11/01 02:09:00;;;;;;;4.93;2.25;;;;;;;23.06;40.60;97455.50;5158471;27;20018;-34
2022/11/01 02:11:25;;;;;;;4.43;2.17;;;;;;;23.08;40.58;97464.09;5157837;27;20046;-34
2022/11/01 02:13:51;;;;;;;3.28;2.25;;;;;;;23.10;40.66;97456.06;5139474;27;20022;-34
2022/11/01 02:17:08;;;;;;;4.15;2.47;;;;;;;23.06;40.18;97458.28;5155965;27;20030;-34
2022/11/01 02:20:19;;;;;;;4.68;2.15;;;;;;;22.94;40.48;97453.84;5113773;27;20039;-35
2022/11/01 02:23:06;;;;;;;4.38;1.95;;;;;;;22.93;40.37;97453.09;5132541;27;20041;-34
2022/11/01 02:26:00;;;;;;;3.42;2.08;;;;;;;23.01;40.29;97453.44;5157821;27;20025;-34
2022/11/01 02:28:44;;;;;;;4.15;2.65;;;;;;;23.03;40.60;97456.47;5157858;27;20057;-34
2022/11/01 02:31:41;;;;;;;5.13;1.95;;;;;;;23.03;40.54;97461.25;5157529;27;20435;-34
2022/11/01 02:34:21;;;;;;;2.92;2.10;;;;;;;23.05;40.54;97459.53;5157857;27;20048;-35
2022/11/01 02:36:54;;;;;;;3.72;2.13;;;;;;;22.99;40.39;97460.72;5157528;27;20063;-36
2022/11/01 02:39:26;;;;;;;4.88;2.00;;;;;;;22.96;40.32;97454.13;5157864;27;20026;-34
2022/11/01 02:42:14;;;;;;;4.43;2.33;;;;;;;22.95;40.80;97455.38;5157673;27;20045;-35
2022/11/01 02:44:48;;;;;;;4.30;1.98;;;;;;;22.99;40.77;97461.47;5157257;27;20019;-35
2022/11/01 02:47:15;;;;;;;4.80;2.00;;;;;;;22.97;40.58;97452.91;5157457;27;20030;-35
2022/11/01 02:49:43;;;;;;;3.17;2.00;;;;;;;22.90;40.69;97464.34;5157168;27;20042;-34
2022/11/01 02:52:18;;;;;;;6.25;2.20;;;;;;;22.93;40.65;97457.88;5157292;27;20026;-37
2022/11/01 02:54:49;;;;;;;3.72;2.00;;;;;;;22.96;40.58;97464.44;5157100;27;20049;-35
2022/11/01 02:57:37;;;;;;;4.30;2.05;;;;;;;22.96;40.74;97461.69;5157608;27;20022;-34
2022/11/01 03:00:35;;;;;;;5.28;2.25;;;;;;;22.91;40.76;97463.13;5156968;27;20034;-35
2022/11/01 03:03:03;;;;;;;4.78;2.25;;;;;;;22.95;40.47;97463.69;5100395;27;20478;-34
2022/11/01 03:05:36;;;;;;;3.28;1.95;;;;;;;22.90;40.58;97461.59;5156982;27;20035;-35
2022/11/01 03:08:17;;;;;;;5.45;2.22;;;;;;;22.94;40.52;97459.38;5156799;27;20049;-35
2022/11/01 03:10:48;;;;;;;3.85;1.85;;;;;;;22.98;40.72;97456.44;5156932;27;20527;-34
2022/11/01 03:13:27;;;;;;;4.57;2.10;;;;;;;22.94;40.81;97464.91;5156798;27;20050;-37
2022/11/01 03:16:39;;;;;;;3.90;1.80;;;;;;;22.95;40.58;97469.22;5156885;27;20075;-35
2022/11/01 03:19:35;;;;;;;3.28;2.00;;;;;;;22.90;40.97;97458.81;5151820;27;20042;-34
2022/11/01 03:22:04;;;;;;;5.90;2.10;;;;;;;22.88;40.78;97461.31;5156649;27;20097;-36
2022/11/01 03:24:45;;;;;;;4.15;2.47;;;;;;;22.93;41.04;97463.41;5156636;27;20111;-34
2022/11/01 03:27:31;;;;;;;3.95;2.10;;;;;;;22.87;41.01;97455.00;5156830;27;20470;-34
2022/11/01 03:30:14;;;;;;;4.68;2.33;;;;;;;22.83;41.14;97454.47;5155956;27;20070;-34
2022/11/01 03:32:45;;;;;;;4.07;2.20;;;;;;;22.86;41.15;97461.06;5138045;27;20026;-35
2022/11/01 03:35:18;;;;;;;6.95;2.38;;;;;;;22.86;41.18;97458.28;5156341;27;20027;-34
2022/11/01 03:37:47;;;;;;;3.25;2.30;;;;;;;22.85;40.90;97456.78;5156232;27;20027;-34
2022/11/01 03:40:16;;;;;;;4.00;2.17;;;;;;;22.92;41.07;97459.88;5156577;27;20030;-36
2022/11/01 03:42:47;;;;;;;4.03;2.33;;;;;;;22.87;40.91;97457.78;5156225;27;20023;-34
2022/11/01 03:45:17;;;;;;;5.03;2.60;;;;;;;22.84;41.10;97463.53;5156671;27;20023;-35
2022/11/01 03:47:42;;;;;;;4.57;2.40;;;;;;;22.87;40.98;97459.81;5137556;27;20528;-34
2022/11/01 03:50:17;;;;;;;4.50;2.33;;;;;;;22.88;40.75;97462.06;5156210;27;20019;-34
2022/11/01 03:52:43;;;;;;;3.60;2.20;;;;;;;22.87;40.92;97460.53;5137392;27;20052;-38
2022/11/01 03:55:18;;;;;;;6.00;2.47;;;;;;;22.86;40.75;97467.34;5155978;27;20023;-34
2022/11/01 03:57:51;;;;;;;4.03;2.10;;;;;;;22.83;41.04;97468.31;5137398;27;20378;-35
2022/11/01 04:00:17;;;;;;;3.33;2.13;;;;;;;22.73;41.33;97472.44;5156140;27;20051;-34
2022/11/01 04:02:42;;;;;;;3.80;2.00;;;;;;;22.79;41.11;97475.28;5155813;27;20027;-34
2022/11/01 04:05:09;;;;;;;5.72;2.50;;;;;;;22.75;41.47;97469.91;5137339;27;20026;-34
2022/11/01 04:07:34;;;;;;;5.88;2.40;;;;;;;22.74;41.07;97462.88;5155702;27;20026;-35
2022/11/01 04:10:00;;;;;;;3.63;2.20;;;;;;;22.76;41.31;97465.19;5155679;27;20374;-34
2022/11/01 04:12:26;;;;;;;5.13;2.50;;;;;;;22.83;40.67;97462.78;5155508;27;20042;-34
2022/11/01 04:20:32;;;;;;;4.82;2.42;;;;;;;22.75;41.10;97463.66;5155774;27;20087;-34
2022/11/01 04:23:02;;;;;;;3.42;2.05;;;;;;;22.82;40.63;97469.56;5155694;27;20105;-34
2022/11/01 04:25:28;;;;;;;4.13;2.08;;;;;;;22.74;40.91;97464.91;5155353;27;20019;-34
2022/11/01 04:27:56;;;;;;;6.72;2.60;;;;;;;22.78;40.70;97468.22;5155400;27;20022;-34
2022/11/01 04:30:23;;;;;;;3.90;2.50;;;;;;;22.82;40.84;97477.09;5155385;27;20030;-35
2022/11/01 04:32:48;;;;;;;6.00;2.20;;;;;;;22.84;40.61;97469.84;5155263;27;20387;-35
2022/11/01 04:35:14;;;;;;;4.15;2.30;;;;;;;22.85;40.57;97467.84;5155303;27;20019;-34
2022/11/01 04:37:39;;;;;;;5.00;2.30;;;;;;;22.77;40.62;97469.47;5155273;27;20461;-35
2022/11/01 04:40:06;;;;;;;5.65;1.98;;;;;;;22.85;40.45;97465.81;5154800;27;20031;-34
2022/11/01 04:42:36;;;;;;;4.35;1.88;;;;;;;22.83;40.49;97468.31;5155389;27;20023;-34
2022/11/01 04:45:03;;;;;;;3.40;1.88;;;;;;;22.77;40.62;97472.22;5155437;27;20023;-34
2022/11/01 04:47:28;;;;;;;4.50;2.20;;;;;;;22.84;40.34;97469.84;5155150;27;20022;-35
2022/11/01 04:49:54;;;;;;;2.88;2.28;;;;;;;22.86;40.54;97472.13;5155191;27;20371;-34
2022/11/01 04:52:20;;;;;;;3.83;2.08;;;;;;;22.80;40.54;97468.50;5155296;27;20087;-35
2022/11/01 04:54:45;;;;;;;5.85;2.30;;;;;;;22.81;40.60;97468.03;5155044;27;20101;-34
2022/11/01 04:57:23;;;;;;;4.25;2.20;;;;;;;22.75;40.71;97466.41;5155141;27;20078;-36
2022/11/01 04:59:50;;;;;;;3.45;2.05;;;;;;;22.81;40.60;97467.25;5154936;27;20019;-34
2022/11/01 05:02:16;;;;;;;3.33;1.80;;;;;;;22.74;40.56;97462.88;5155109;27;20474;-35
2022/11/01 05:04:41;;;;;;;3.13;1.90;;;;;;;22.85;40.15;97465.06;5155023;27;20057;-35
2022/11/01 05:07:07;;;;;;;3.17;2.17;;;;;;;22.83;40.51;97465.53;5154996;27;20089;-35
2022/11/01 05:09:32;;;;;;;4.00;1.85;;;;;;;22.91;39.85;97466.66;5154936;27;20098;-34
2022/11/01 05:11:58;;;;;;;2.45;1.60;;;;;;;22.84;40.27;97466.31;5154768;27;20046;-35
2022/11/01 05:14:23;;;;;;;2.38;1.70;;;;;;;22.79;40.43;97469.75;5136458;27;20037;-35
2022/11/01 05:16:48;;;;;;;3.88;2.28;;;;;;;22.79;40.05;97464.22;5136606;27;20042;-36
2022/11/01 05:19:14;;;;;;;3.00;1.98;;;;;;;22.85;40.18;97460.28;5154789;27;20382;-36
2022/11/01 05:21:40;;;;;;;5.15;2.20;;;;;;;22.79;40.28;97464.97;5154871;27;20025;-35
2022/11/01 05:24:06;;;;;;;4.63;2.40;;;;;;;22.82;40.04;97466.03;5154899;27;20467;-35
2022/11/01 05:26:33;;;;;;;4.78;1.77;;;;;;;22.81;40.00;97478.31;5154752;27;20030;-34
2022/11/01 05:28:58;;;;;;;3.17;1.85;;;;;;;22.81;40.10;97476.31;5154781;27;20059;-35
2022/11/01 05:31:23;;;;;;;2.90;1.90;;;;;;;22.86;39.98;97474.88;5154860;27;20105;-37
2022/11/01 05:33:49;;;;;;;3.85;2.30;;;;;;;22.87;39.83;97473.66;5136320;27;20022;-34
2022/11/01 05:36:14;;;;;;;3.70;2.08;;;;;;;22.81;40.17;97472.78;5136249;27;20050;-35
2022/11/01 05:38:40;;;;;;;3.30;1.75;;;;;;;22.78;40.06;97474.50;5154584;27;20023;-36
2022/11/01 05:41:05;;;;;;;4.28;2.33;;;;;;;22.81;39.90;97478.31;5154783;27;20029;-37
2022/11/01 05:43:31;;;;;;;3.95;2.08;;;;;;;22.83;39.68;97475.84;5154532;27;20015;-35
2022/11/01 05:45:56;;;;;;;5.53;2.55;;;;;;;22.84;39.56;97478.13;5154563;27;20023;-36
2022/11/01 05:48:22;;;;;;;2.90;1.90;;;;;;;22.86;39.66;97480.41;5154537;27;20463;-34
2022/11/01 05:50:47;;;;;;;4.00;2.13;;;;;;;22.88;39.50;97483.44;5154641;27;20494;-34
2022/11/01 05:53:13;;;;;;;4.30;2.15;;;;;;;22.81;39.27;97495.69;5157845;27;20394;-35
2022/11/01 05:55:38;;;;;;;4.00;2.03;;;;;;;22.86;39.74;97494.25;5158548;27;20416;-35
2022/11/01 05:58:05;;;;;;;4.25;2.03;;;;;;;22.81;39.49;97497.69;5158379;27;20379;-35
2022/11/01 06:00:32;;;;;;;4.35;2.03;;;;;;;22.85;39.42;97512.84;5158483;27;20466;-35
2022/11/01 06:02:58;;;;;;;4.95;2.65;;;;;;;22.84;39.68;97499.50;5158140;27;20031;-35
2022/11/01 06:05:24;;;;;;;3.80;1.88;;;;;;;22.82;39.38;97510.28;5158308;27;20122;-35
2022/11/01 06:07:49;;;;;;;3.40;2.05;;;;;;;22.87;39.42;97501.31;5158167;27;20485;-35
2022/11/01 06:10:15;;;;;;;3.97;1.65;;;;;;;22.82;39.77;97502.75;5158222;27;20026;-34
2022/11/01 06:12:40;;;;;;;3.75;1.95;;;;;;;22.85;39.29;97503.78;5157879;27;20538;-35
2022/11/01 06:15:06;;;;;;;3.45;2.00;;;;;;;22.85;39.39;97507.31;5158089;27;20067;-35
2022/11/01 06:17:32;;;;;;;3.63;1.90;;;;;;;22.81;39.31;97508.75;5158212;27;20023;-35
2022/11/01 06:19:58;;;;;;;3.17;1.90;;;;;;;22.79;39.40;97511.22;5157701;27;20505;-35
2022/11/01 06:22:24;;;;;;;3.80;2.08;;;;;;;22.78;39.48;97518.00;5158433;27;20378;-36
2022/11/01 06:24:51;;;;;;;4.80;2.30;;;;;;;22.79;39.43;97519.53;5157695;27;20040;-35
2022/11/01 06:27:16;;;;;;;3.13;2.17;;;;;;;22.79;39.38;97514.75;5158026;27;20062;-34
2022/11/01 06:29:42;;;;;;;2.83;1.88;;;;;;;22.74;39.37;97515.44;5157695;27;20049;-35
2022/11/01 06:32:07;;;;;;;5.78;2.33;;;;;;;22.81;39.54;97517.81;5157647;27;20378;-36
2022/11/01 06:34:33;;;;;;;5.95;2.42;;;;;;;22.82;39.20;97522.09;5157606;27;20022;-35
2022/11/01 06:36:59;;;;;;;7.80;2.30;;;;;;;22.77;39.57;97522.78;5157617;27;20054;-35
2022/11/01 06:39:24;;;;;;;4.28;2.10;;;;;;;22.82;39.39;97522.09;5157389;27;20492;-35
2022/11/01 06:41:50;;;;;;;3.95;1.95;;;;;;;22.80;39.47;97523.81;5157612;27;20058;-34
2022/11/01 06:44:16;;;;;;;3.83;2.17;;;;;;;22.77;39.71;97527.53;5157431;27;20115;-34
2022/11/01 06:46:44;;;;;;;4.35;2.30;;;;;;;22.73;39.82;97524.97;5157515;27;20046;-35
2022/11/01 06:49:09;;;;;;;4.60;2.40;;;;;;;22.74;39.85;97534.03;5157467;27;20058;-34
2022/11/01 06:51:34;;;;;;;5.53;2.50;;;;;;;22.76;39.76;97529.53;5157548;27;20052;-35
2022/11/01 06:54:00;;;;;;;5.68;2.42;;;;;;;22.73;39.39;97535.25;5157232;27;20030;-38
2022/11/01 06:56:26;;;;;;;5.07;2.75;;;;;;;22.75;39.60;97541.81;5156957;27;20022;-36
2022/11/01 06:58:51;;;;;;;8.95;2.60;;;;;;;22.77;39.41;97539.38;5156996;27;20018;-37
2022/11/01 07:01:17;;;;;;;4.00;2.20;;;;;;;22.77;39.55;97544.91;5157096;27;20469;-36
2022/11/01 07:03:44;;;;;;;6.07;2.40;;;;;;;22.78;39.70;97551.19;5156995;27;20044;-35
2022/11/01 07:06:10;;;;;;;5.85;2.50;;;;;;;22.74;39.52;97547.84;5138321;27;20018;-37
2022/11/01 07:08:36;;;;;;;4.75;2.17;;;;;;;22.75;39.52;97543.84;5156954;27;20109;-36
2022/11/01 07:11:01;;;;;;;6.22;3.72;;;;;;;22.72;39.59;97553.09;5156612;27;20061;-36
2022/11/01 07:13:32;;;;;;;7.82;2.85;;;;;;;22.78;39.83;97554.72;5156854;27;20339;-35
2022/11/01 07:16:00;;;;;;;4.95;2.50;;;;;;;22.80;39.88;97562.53;5156813;27;20029;-36
2022/11/01 07:18:29;;;;;;;3.22;2.28;;;;;;;22.78;39.95;97557.47;5138202;27;20054;-35
2022/11/01 07:20:55;;;;;;;5.30;2.50;;;;;;;22.69;40.17;97565.13;5156680;27;20029;-35
2022/11/01 07:23:21;;;;;;;4.25;2.40;;;;;;;22.68;39.84;97569.13;5156587;27;20048;-36
2022/11/01 07:25:51;;;;;;;5.28;2.72;;;;;;;22.77;40.00;97566.25;5156621;27;20038;-36
2022/11/01 07:28:16;;;;;;;3.45;2.47;;;;;;;22.70;40.13;97572.16;5156527;27;20469;-35
2022/11/01 07:30:42;;;;;;;4.20;2.58;;;;;;;22.71;40.10;97566.16;5156678;27;20029;-36
2022/11/01 07:33:08;;;;;;;3.53;2.10;;;;;;;22.73;40.24;97576.75;5156443;27;20029;-35
2022/11/01 07:35:34;;;;;;;4.95;2.17;;;;;;;22.73;40.10;97580.28;5156390;27;20034;-34
2022/11/01 07:38:00;;;;;;;3.80;2.33;;;;;;;22.61;40.26;97581.34;5156289;27;20101;-36
2022/11/01 07:40:27;;;;;;;6.80;2.33;;;;;;;22.69;40.34;97576.19;5156322;27;20022;-36
2022/11/01 07:42:57;;;;;;;5.47;2.72;;;;;;;22.70;40.41;97577.69;5156476;27;20023;-35
2022/11/01 07:45:24;;;;;;;6.22;2.67;;;;;;;22.67;40.37;97579.41;5156576;27;20023;-35
2022/11/01 07:47:50;;;;;;;6.82;2.60;;;;;;;22.70;40.42;97583.22;5156240;27;20049;-35
2022/11/01 07:50:15;;;;;;;3.15;2.25;;;;;;;22.77;40.30;97583.63;5137678;27;20019;-35
2022/11/01 07:52:41;;;;;;;3.35;2.13;;;;;;;22.71;40.40;97585.53;5156143;27;20027;-35
2022/11/01 07:55:07;;;;;;;5.28;2.35;;;;;;;22.71;40.35;97584.75;5156080;27;20036;-35
2022/11/01 07:57:41;;;;;;;5.50;2.45;;;;;;;22.71;40.46;97588.28;5156200;27;20057;-35
2022/11/01 08:00:08;;;;;;;4.18;2.28;;;;;;;22.67;40.74;97582.19;5149278;27;20367;-38
2022/11/01 08:02:35;;;;;;;3.78;1.90;;;;;;;22.64;40.67;97580.38;5139800;27;20047;-35
2022/11/01 08:05:00;;;;;;;4.60;2.67;;;;;;;22.69;40.49;97581.69;5133142;27;20027;-34
2022/11/01 08:07:26;;;;;;;4.32;2.17;;;;;;;22.65;40.77;97583.91;5133137;27;20054;-36
2022/11/01 08:09:52;;;;;;;5.20;2.30;;;;;;;22.72;40.82;97586.28;5133043;27;20371;-34
2022/11/01 08:12:17;;;;;;;4.10;1.90;;;;;;;22.71;40.96;97579.22;5132522;27;20094;-36
2022/11/01 08:14:42;;;;;;;3.25;1.73;;;;;;;22.64;41.17;97591.44;5132521;27;20046;-34
2022/11/01 08:17:08;;;;;;;4.70;2.38;;;;;;;22.71;40.67;97585.53;5132819;27;20015;-34
2022/11/01 08:19:33;;;;;;;4.10;2.10;;;;;;;22.68;40.82;97585.72;5151323;27;20065;-34
2022/11/01 08:21:59;;;;;;;4.00;1.98;;;;;;;22.70;40.87;97586.00;5153616;27;20094;-34
2022/11/01 08:24:25;;;;;;;3.75;1.95;;;;;;;22.65;40.92;97592.94;5153328;27;20033;-35
2022/11/01 08:26:52;;;;;;;3.03;2.20;;;;;;;22.68;41.25;97586.47;5153290;27;20014;-36
2022/11/01 08:29:18;;;;;;;4.55;2.17;;;;;;;22.63;41.28;97583.59;5124650;27;20023;-34
2022/11/01 08:31:44;;;;;;;3.35;2.10;;;;;;;22.66;41.44;97593.72;5132730;27;20109;-34
2022/11/01 08:34:10;;;;;;;5.30;2.35;;;;;;;22.67;41.04;97596.00;5132804;27;20113;-35
2022/11/01 08:36:35;;;;;;;3.92;1.88;;;;;;;22.66;41.04;97599.25;5132233;27;20023;-34
2022/11/01 08:39:01;;;;;;;3.28;1.88;;;;;;;22.68;41.05;97600.28;5132450;27;20365;-36
2022/11/01 08:41:29;;;;;;;3.65;1.80;;;;;;;22.75;40.94;97597.13;5132619;27;20402;-34
2022/11/01 08:43:57;;;;;;;4.05;2.17;;;;;;;22.71;41.27;97595.81;5132464;27;20451;-34
2022/11/01 08:46:22;;;;;;;5.18;2.00;;;;;;;22.72;41.28;97597.34;5132534;27;20023;-34
2022/11/01 08:48:51;;;;;;;4.35;2.20;;;;;;;22.60;41.32;97590.13;5132423;27;20019;-35
2022/11/01 08:51:24;;;;;;;3.97;1.85;;;;;;;22.64;41.33;97593.44;5132387;27;20374;-35
2022/11/01 08:53:50;;;;;;;3.58;2.17;;;;;;;22.51;41.62;97605.53;5133469;27;20387;-36
2022/11/01 08:56:15;;;;;;;4.18;1.98;;;;;;;22.61;41.34;97597.94;5117322;27;20031;-34
2022/11/01 08:58:41;;;;;;;3.47;2.00;;;;;;;22.72;41.33;97597.34;5129187;27;20035;-34
2022/11/01 09:01:06;;;;;;;2.90;1.90;;;;;;;22.70;41.41;97599.81;5124417;27;20451;-36
2022/11/01 09:03:31;;;;;;;6.30;2.35;;;;;;;22.78;40.92;97596.19;5118569;27;20109;-34
2022/11/01 09:05:57;;;;;;;3.90;2.30;;;;;;;22.76;41.18;97606.22;5122221;27;20050;-34
2022/11/01 09:08:22;;;;;;;4.60;2.10;;;;;;;22.78;40.74;97603.75;5125930;27;20031;-34
2022/11/01 09:10:48;;;;;;;3.83;2.25;;;;;;;22.70;40.90;97602.59;5125436;27;20019;-35
2022/11/01 09:13:13;;;;;;;2.88;1.63;;;;;;;22.73;41.31;97601.63;5117511;27;20047;-35
2022/11/01 09:15:39;;;;;;;3.45;2.20;;;;;;;22.70;41.04;97597.81;5117280;27;20760;-35
2022/11/01 09:18:06;;;;;;;3.17;1.90;;;;;;;22.64;41.46;97596.94;5117838;27;21156;-35
2022/11/01 09:20:31;;;;;;;3.67;2.17;;;;;;;22.61;41.21;97600.69;5118382;27;20023;-35
2022/11/01 09:22:57;;;;;;;3.70;1.92;;;;;;;22.66;41.12;97599.25;5131575;27;20075;-35
2022/11/01 09:25:23;;;;;;;3.78;2.17;;;;;;;22.71;40.70;97610.41;5113505;27;20031;-35
2022/11/01 09:27:49;;;;;;;2.53;1.80;;;;;;;22.55;41.30;97611.66;5134985;27;20084;-35
2022/11/01 09:30:14;;;;;;;3.65;2.00;;;;;;;22.52;41.47;97609.06;5117809;27;20145;-35
2022/11/01 09:32:40;;;;;;;2.95;1.98;;;;;;;22.69;41.25;97615.66;5135756;27;20079;-36
2022/11/01 09:35:06;;;;;;;4.10;1.90;;;;;;;22.68;41.23;97613.34;5135815;27;20399;-35
2022/11/01 09:37:31;;;;;;;3.70;2.05;;;;;;;22.53;41.23;97619.66;5136097;27;20054;-36
2022/11/01 09:40:03;;;;;;;4.47;2.10;;;;;;;22.54;40.46;97612.88;5135952;27;20046;-38
2022/11/01 09:42:34;;;;;;;3.60;1.90;;;;;;;22.49;41.24;97616.34;5136065;27;20023;-36
2022/11/01 09:45:28;;;;;;;3.60;1.65;;;;;;;22.41;41.73;97614.41;5135816;27;20026;-35
2022/11/01 09:47:56;;;;;;;3.08;1.60;;;;;;;22.41;40.29;97619.94;5134964;27;20058;-35
2022/11/01 09:50:29;;;;;;;3.72;1.80;;;;;;;22.24;41.09;97614.16;5135694;27;20024;-35
2022/11/01 09:52:56;;;;;;;3.60;2.00;;;;;;;22.08;41.08;97611.84;5135578;27;20134;-35
2022/11/01 09:55:56;;;;;;;3.42;1.83;;;;;;;22.15;40.83;97614.22;5117083;27;20026;-35
2022/11/01 09:58:33;;;;;;;3.53;1.70;;;;;;;22.06;40.20;97609.53;5135452;27;20027;-35
2022/11/01 10:01:14;;;;;;;4.35;1.85;;;;;;;22.43;40.75;97611.94;5135135;27;20027;-36
2022/11/01 10:03:58;;;;;;;3.22;1.73;;;;;;;22.43;40.33;97612.72;5135602;27;20420;-36
2022/11/01 10:06:38;;;;;;;4.63;1.92;;;;;;;22.17;40.34;97606.22;5135457;27;20027;-35
2022/11/01 10:09:19;;;;;;;3.72;1.98;;;;;;;22.36;40.87;97607.56;5135328;27;20035;-36
2022/11/01 10:11:50;;;;;;;4.82;2.03;;;;;;;22.38;40.91;97598.78;5116490;27;20055;-35
2022/11/01 10:14:31;;;;;;;4.35;1.83;;;;;;;22.57;40.71;97598.13;5135331;27;20474;-35
2022/11/01 10:17:03;;;;;;;2.78;1.70;;;;;;;22.60;40.08;97607.47;5116774;27;20119;-36
2022/11/01 10:19:32;;;;;;;2.85;1.73;;;;;;;22.66;40.69;97604.78;5133101;27;20023;-35
2022/11/01 10:22:03;;;;;;;2.60;1.70;;;;;;;22.56;41.11;97602.13;5153560;27;20095;-35
2022/11/01 10:24:33;;;;;;;4.18;1.85;;;;;;;22.44;40.79;97613.47;5157873;27;20026;-36
2022/11/01 10:27:12;;;;;;;4.97;1.70;;;;;;;22.46;40.53;97606.22;5157919;27;20379;-36
2022/11/01 10:29:37;;;;;;;1.88;1.40;;;;;;;22.55;40.21;97600.59;5157743;27;20022;-37
2022/11/01 10:32:04;;;;;;;4.60;1.40;;;;;;;22.16;40.24;97607.44;5157833;27;20382;-36
2022/11/01 10:34:38;;;;;;;2.75;1.63;;;;;;;22.39;39.71;97603.84;5157956;27;20026;-37
2022/11/01 10:37:38;;;;;;;2.95;1.60;;;;;;;22.49;40.89;97610.06;5138850;27;20026;-35
2022/11/01 10:40:17;;;;;;;4.47;1.50;;;;;;;22.57;39.12;97606.41;5152306;27;20049;-36
2022/11/01 10:42:43;;;;;;;2.80;1.40;;;;;;;22.51;40.15;97602.78;5157440;27;20031;-36
2022/11/01 10:45:14;;;;;;;2.33;1.60;;;;;;;22.55;38.66;97599.84;5139095;27;20030;-36
2022/11/01 10:47:42;;;;;;;3.88;1.73;;;;;;;22.51;39.51;97593.72;5157351;27;20044;-35
2022/11/01 10:50:10;;;;;;;3.30;1.60;;;;;;;22.60;39.61;97590.13;5157354;27;20010;-35
2022/11/01 10:53:03;;;;;;;4.47;1.60;;;;;;;22.66;38.78;97593.72;5157305;27;20029;-35
2022/11/01 10:55:56;;;;;;;2.30;1.55;;;;;;;22.75;39.44;97585.34;5157154;27;20467;-37
2022/11/01 10:58:31;;;;;;;3.00;1.33;;;;;;;22.73;39.36;97587.81;5157391;27;20394;-36
2022/11/01 11:00:58;;;;;;;2.85;1.80;;;;;;;22.64;36.14;97585.13;5157106;27;20470;-36
2022/11/01 11:03:26;;;;;;;3.90;1.65;;;;;;;22.56;36.49;97574.47;5157095;27;20032;-37
2022/11/01 11:05:53;;;;;;;3.92;1.50;;;;;;;22.51;38.89;97577.13;5157049;27;20015;-35
2022/11/01 11:08:21;;;;;;;3.78;1.60;;;;;;;22.61;39.03;97567.53;5157025;27;20459;-36
2022/11/01 11:10:47;;;;;;;2.25;1.20;;;;;;;22.72;38.12;97575.22;5156757;27;20961;-37
2022/11/01 11:13:19;;;;;;;1.75;1.20;;;;;;;22.77;38.32;97569.78;5156752;27;20039;-35
2022/11/01 11:15:55;;;;;;;2.30;1.35;;;;;;;22.75;38.25;97572.22;5156943;27;20105;-35
2022/11/01 11:18:28;;;;;;;4.35;1.58;;;;;;;22.74;38.41;97576.28;5137928;27;20117;-35
2022/11/01 11:20:58;;;;;;;2.30;1.50;;;;;;;22.67;38.44;97573.13;5156783;27;20029;-36
2022/11/01 11:23:29;;;;;;;4.03;1.67;;;;;;;22.79;38.55;97564.53;5156744;27;20071;-37
2022/11/01 11:26:12;;;;;;;2.70;1.25;;;;;;;22.76;38.35;97575.78;5155959;27;20019;-35
2022/11/01 11:28:43;;;;;;;2.03;1.47;;;;;;;22.84;38.21;97572.16;5155118;27;20110;-35
2022/11/01 11:31:14;;;;;;;2.15;1.30;;;;;;;22.81;37.97;97572.38;5156177;27;20387;-35
2022/11/01 11:34:15;;;;;;;2.25;1.38;;;;;;;22.84;38.12;97566.63;5156282;27;20023;-35
2022/11/01 11:36:45;;;;;;;3.35;1.20;;;;;;;22.75;38.17;97560.44;5114680;27;20034;-36
2022/11/01 11:39:26;;;;;;;2.10;1.60;;;;;;;22.81;38.05;97561.31;5156243;27;20466;-36
2022/11/01 11:41:51;;;;;;;3.28;1.52;;;;;;;22.81;38.13;97570.34;5156359;27;20030;-36
2022/11/01 11:44:47;;;;;;;2.88;1.35;;;;;;;22.73;37.95;97560.16;5156172;27;20026;-35
2022/11/01 11:47:24;;;;;;;3.95;1.60;;;;;;;22.75;38.28;97563.22;5153776;27;20046;-35
2022/11/01 11:49:56;;;;;;;2.50;1.40;;;;;;;22.77;38.26;97566.25;5155759;27;20359;-35
2022/11/01 11:52:30;;;;;;;2.97;1.50;;;;;;;22.76;38.15;97561.97;5156388;27;20080;-35
2022/11/01 11:54:55;;;;;;;4.45;1.77;;;;;;;22.73;37.25;97558.16;5155937;27;20034;-35